createdAt,value
2019-05-30T00:01:09.776Z,1.42
2019-05-30T00:03:39.832Z,1.32
2019-05-30T00:06:09.696Z,1.00
2019-05-30T00:08:39.561Z,1.00
2019-05-30T00:11:09.425Z,1.30
2019-05-30T00:13:39.259Z,1.20
2019-05-30T00:16:09.127Z,1.10
2019-05-30T00:18:38.983Z,1.10
2019-05-30T00:21:08.921Z,1.02
2019-05-30T00:23:38.833Z,1.40
2019-05-30T00:26:08.767Z,1.20
2019-05-30T00:28:38.696Z,1.40
2019-05-30T00:31:08.556Z,1.17
2019-05-30T00:33:38.488Z,1.35
2019-05-30T00:36:08.336Z,1.20
2019-05-30T00:38:38.337Z,1.12
2019-05-30T00:41:08.442Z,1.17
2019-05-30T00:43:38.452Z,1.20
2019-05-30T00:46:08.312Z,1.10
2019-05-30T00:48:38.156Z,1.37
2019-05-30T00:51:08.083Z,1.60
2019-05-30T00:53:37.937Z,1.10
2019-05-30T00:56:07.978Z,1.62
2019-05-30T00:58:37.892Z,0.93
2019-05-30T01:01:07.823Z,1.02
2019-05-30T01:03:37.735Z,1.20
2019-05-30T01:06:07.601Z,1.27
2019-05-30T01:08:37.532Z,1.35
2019-05-30T01:11:07.544Z,1.00
2019-05-30T01:13:37.536Z,1.30
2019-05-30T01:16:07.534Z,1.20
2019-05-30T01:18:37.392Z,1.20
2019-05-30T01:21:07.490Z,1.05
2019-05-30T01:23:39.186Z,1.17
2019-05-30T01:26:09.095Z,1.25
2019-05-30T01:28:38.964Z,1.30
2019-05-30T01:31:11.085Z,1.20
2019-05-30T01:33:40.368Z,1.10
2019-05-30T01:36:10.207Z,1.30
2019-05-30T01:38:40.069Z,1.10
2019-05-30T01:41:09.908Z,1.22
2019-05-30T01:43:39.747Z,1.30
2019-05-30T01:46:09.680Z,1.17
2019-05-30T01:48:39.594Z,1.02
2019-05-30T01:51:09.996Z,0.95
2019-05-30T01:53:39.912Z,1.12
2019-05-30T01:56:09.839Z,1.10
2019-05-30T01:58:39.675Z,1.05
2019-05-30T02:01:23.676Z,1.20
2019-05-30T02:03:41.230Z,1.17
2019-05-30T02:06:11.168Z,0.98
2019-05-30T02:08:41.128Z,1.00
2019-05-30T02:11:10.984Z,1.17
2019-05-30T02:13:40.828Z,1.20
2019-05-30T02:16:10.692Z,1.20
2019-05-30T02:18:40.555Z,1.40
2019-05-30T02:21:10.400Z,0.90
2019-05-30T02:23:40.344Z,1.10
2019-05-30T02:26:10.624Z,1.05
2019-05-30T02:28:41.739Z,1.10
2019-05-30T02:31:12.195Z,1.10
2019-05-30T02:33:42.407Z,0.90
2019-05-30T02:36:12.782Z,0.90
2019-05-30T02:38:42.857Z,1.05
2019-05-30T02:41:12.792Z,0.95
2019-05-30T02:43:42.808Z,1.05
2019-05-30T02:46:12.804Z,1.20
2019-05-30T02:48:58.283Z,1.00
2019-05-30T02:51:14.321Z,1.00
2019-05-30T02:53:44.266Z,0.98
2019-05-30T02:56:14.178Z,1.00
2019-05-30T02:58:44.121Z,0.90
2019-05-30T03:01:14.700Z,1.17
2019-05-30T03:06:14.832Z,0.90
2019-05-30T03:08:44.814Z,1.10
2019-05-30T03:11:15.684Z,1.00
2019-05-30T03:13:45.695Z,0.97
2019-05-30T03:16:15.628Z,1.00
2019-05-30T03:18:45.546Z,1.17
2019-05-30T03:21:15.987Z,1.05
2019-05-30T03:23:46.013Z,1.30
2019-05-30T03:26:17.019Z,1.10
2019-05-30T03:28:47.009Z,1.10
2019-05-30T03:31:27.763Z,1.10
2019-05-30T03:33:50.930Z,1.10
2019-05-30T03:36:30.217Z,1.00
2019-05-30T03:38:52.620Z,0.90
2019-05-30T03:41:22.696Z,1.10
2019-05-30T03:43:52.752Z,0.80
2019-05-30T03:46:25.749Z,0.90
2019-05-30T03:48:56.559Z,0.90
2019-05-30T03:51:28.416Z,0.98
2019-05-30T03:56:39.021Z,1.00
2019-05-30T03:59:14.886Z,0.93
2019-05-30T04:02:06.486Z,1.00
2019-05-30T04:04:49.766Z,0.90
2019-05-30T04:07:22.756Z,1.32
2019-05-30T04:09:55.134Z,1.00
2019-05-30T04:12:46.509Z,0.90
2019-05-30T04:15:33.877Z,1.17
2019-05-30T04:18:04.085Z,1.00
2019-05-30T04:20:34.117Z,0.90
2019-05-30T04:23:04.162Z,0.93
2019-05-30T04:25:34.169Z,0.80
2019-05-30T04:28:04.200Z,0.90
2019-05-30T04:30:34.144Z,1.00
2019-05-30T04:33:17.030Z,1.10
2019-05-30T04:35:35.740Z,0.80
2019-05-30T04:38:05.688Z,1.00
2019-05-30T04:40:35.678Z,0.95
2019-05-30T04:43:05.630Z,0.90
2019-05-30T04:45:35.548Z,0.90
2019-05-30T04:48:05.464Z,1.00
2019-05-30T04:50:35.467Z,0.90
2019-05-30T04:53:05.420Z,0.98
2019-05-30T04:55:35.280Z,1.12
2019-05-30T04:58:05.192Z,0.72
2019-05-30T05:00:35.197Z,1.00
2019-05-30T05:03:05.874Z,0.90
2019-05-30T05:05:35.791Z,0.90
2019-05-30T05:08:05.732Z,0.85
2019-05-30T05:10:35.720Z,0.80
2019-05-30T05:13:05.664Z,0.88
2019-05-30T05:15:35.580Z,1.10
2019-05-30T05:18:05.494Z,0.90
2019-05-30T05:20:36.294Z,1.00
2019-05-30T05:23:06.357Z,0.80
2019-05-30T05:25:36.734Z,0.80
2019-05-30T05:28:06.720Z,0.80
2019-05-30T05:30:36.664Z,0.80
2019-05-30T05:33:06.656Z,0.90
2019-05-30T05:35:36.520Z,0.88
2019-05-30T05:38:06.435Z,0.85
2019-05-30T05:40:36.385Z,1.00
2019-05-30T05:43:06.283Z,1.10
2019-05-30T05:45:36.216Z,1.00
2019-05-30T05:48:06.219Z,0.90
2019-05-30T05:50:36.084Z,1.05
2019-05-30T05:53:05.927Z,1.00
2019-05-30T05:55:35.792Z,0.98
2019-05-30T05:58:05.808Z,0.88
2019-05-30T06:00:35.885Z,1.00
2019-05-30T06:03:05.806Z,1.30
2019-05-30T06:05:35.744Z,1.50
2019-05-30T06:08:05.584Z,2.08
2019-05-30T06:10:35.448Z,1.70
2019-05-30T06:13:05.380Z,1.90
2019-05-30T06:15:35.231Z,1.87
2019-05-30T06:18:05.232Z,1.75
2019-05-30T06:20:35.152Z,1.60
2019-05-30T06:23:05.088Z,1.77
2019-05-30T06:25:35.000Z,1.90
2019-05-30T06:28:05.090Z,1.92
2019-05-30T06:30:35.005Z,1.57
2019-05-30T06:33:05.087Z,1.70
2019-05-30T06:35:35.075Z,1.80
2019-05-30T06:38:05.156Z,2.05
2019-05-30T06:40:35.160Z,2.05
2019-05-30T06:43:06.195Z,1.75
2019-05-30T06:45:36.174Z,1.87
2019-05-30T06:48:06.176Z,1.60
2019-05-30T06:50:36.087Z,1.90
2019-05-30T06:53:06.026Z,1.62
2019-05-30T06:55:35.941Z,1.50
2019-05-30T06:58:06.018Z,1.60
2019-05-30T07:00:36.063Z,1.70
2019-05-30T07:03:06.214Z,1.65
2019-05-30T07:05:36.920Z,1.65
2019-05-30T07:08:07.176Z,2.20
2019-05-30T07:10:37.097Z,2.12
2019-05-30T07:13:06.956Z,1.80
2019-05-30T07:15:36.880Z,2.08
2019-05-30T07:18:06.895Z,1.90
2019-05-30T07:20:36.883Z,2.00
2019-05-30T07:23:07.732Z,1.70
2019-05-30T07:25:37.586Z,1.87
2019-05-30T07:28:07.593Z,1.90
2019-05-30T07:30:37.508Z,1.90
2019-05-30T07:33:07.444Z,1.77
2019-05-30T07:35:37.429Z,1.75
2019-05-30T07:38:07.295Z,1.60
2019-05-30T07:40:37.145Z,1.50
2019-05-30T07:43:07.152Z,1.90
2019-05-30T07:45:37.064Z,1.60
2019-05-30T07:48:07.007Z,1.55
2019-05-30T07:50:36.927Z,1.77
2019-05-30T07:53:06.797Z,1.50
2019-05-30T07:55:36.651Z,1.35
2019-05-30T07:58:06.555Z,1.80
2019-05-30T08:00:37.545Z,1.30
2019-05-30T08:03:08.705Z,1.52
2019-05-30T08:05:39.630Z,1.40
2019-05-30T08:08:12.551Z,1.40
2019-05-30T08:10:42.412Z,1.67
2019-05-30T08:13:12.328Z,1.50
2019-05-30T08:15:43.920Z,1.60
2019-05-30T08:18:14.890Z,1.62
2019-05-30T08:20:44.901Z,1.40
2019-05-30T08:23:14.746Z,1.45
2019-05-30T08:25:44.605Z,1.70
2019-05-30T08:28:14.465Z,1.35
2019-05-30T08:30:44.454Z,1.60
2019-05-30T08:33:14.375Z,1.50
2019-05-30T08:35:50.026Z,1.42
2019-05-30T08:38:15.780Z,1.20
2019-05-30T08:40:46.764Z,1.20
2019-05-30T08:43:16.629Z,1.17
2019-05-30T08:45:46.468Z,1.55
2019-05-30T08:48:16.490Z,1.30
2019-05-30T08:50:46.393Z,1.20
2019-05-30T08:53:17.864Z,1.30
2019-05-30T08:55:47.716Z,1.45
2019-05-30T08:58:18.730Z,1.40
2019-05-30T09:00:48.637Z,1.40
2019-05-30T09:03:18.509Z,1.20
2019-05-30T09:06:03.012Z,1.70
2019-05-30T09:08:20.049Z,1.30
2019-05-30T09:10:50.034Z,1.20
2019-05-30T09:13:19.964Z,1.25
2019-05-30T09:15:49.879Z,1.30
2019-05-30T09:18:19.956Z,1.45
2019-05-30T09:20:49.805Z,1.45
2019-05-30T09:23:19.745Z,1.30
2019-05-30T09:25:49.727Z,1.12
2019-05-30T09:28:19.662Z,1.25
2019-05-30T09:30:49.604Z,1.20
2019-05-30T09:33:19.517Z,1.30
2019-05-30T09:35:49.447Z,1.10
2019-05-30T09:38:19.355Z,1.12
2019-05-30T09:40:50.416Z,1.10
2019-05-30T09:43:20.273Z,1.17
2019-05-30T09:45:50.211Z,1.27
2019-05-30T09:48:20.129Z,1.30
2019-05-30T09:50:51.147Z,0.95
2019-05-30T09:53:22.230Z,1.10
2019-05-30T09:55:53.060Z,1.17
2019-05-30T09:58:23.254Z,1.20
2019-05-30T10:00:53.195Z,1.00
2019-05-30T10:03:23.250Z,1.20
2019-05-30T10:05:53.189Z,1.10
2019-05-30T10:08:23.044Z,1.32
2019-05-30T10:10:53.544Z,1.30
2019-05-30T10:13:24.545Z,1.30
2019-05-30T10:15:54.488Z,1.37
2019-05-30T10:18:24.544Z,1.35
2019-05-30T10:20:54.484Z,1.10
2019-05-30T10:23:24.404Z,1.00
2019-05-30T10:25:54.276Z,1.20
2019-05-30T10:28:24.142Z,1.30
2019-05-30T10:30:57.802Z,1.20
2019-05-30T10:33:25.754Z,1.02
2019-05-30T10:35:56.945Z,0.90
2019-05-30T10:38:27.012Z,1.10
2019-05-30T10:40:56.879Z,1.20
2019-05-30T10:43:26.791Z,1.20
2019-05-30T10:45:57.500Z,1.12
2019-05-30T10:48:27.642Z,1.10
2019-05-30T10:50:57.488Z,1.00
2019-05-30T10:53:27.370Z,1.10
2019-05-30T10:55:57.285Z,1.20
2019-05-30T10:58:27.152Z,1.20
2019-05-30T11:00:58.155Z,0.90
2019-05-30T11:03:28.893Z,0.83
2019-05-30T11:06:01.922Z,0.90
2019-05-30T11:08:34.213Z,1.12
2019-05-30T11:11:04.393Z,1.02
2019-05-30T11:13:34.308Z,1.10
2019-05-30T11:16:04.250Z,1.20
2019-05-30T11:18:34.319Z,1.10
2019-05-30T11:21:04.517Z,1.00
2019-05-30T11:23:34.448Z,1.00
2019-05-30T11:26:04.359Z,1.00
2019-05-30T11:28:34.221Z,1.02
2019-05-30T11:31:04.802Z,0.88
2019-05-30T11:33:34.971Z,1.10
2019-05-30T11:36:05.107Z,1.10
2019-05-30T11:38:35.037Z,1.05
2019-05-30T11:41:05.023Z,1.00
2019-05-30T11:43:35.026Z,1.32
2019-05-30T11:46:04.947Z,1.00
2019-05-30T11:48:34.886Z,1.10
2019-05-30T11:51:04.968Z,0.98
2019-05-30T11:53:34.955Z,1.05
2019-05-30T11:56:04.876Z,0.90
2019-05-30T11:58:34.816Z,0.80
2019-05-30T12:01:04.797Z,1.20
2019-05-30T12:03:34.804Z,1.02
2019-05-30T12:06:05.023Z,1.20
2019-05-30T12:08:35.029Z,0.90
2019-05-30T12:11:04.937Z,1.25
2019-05-30T12:13:34.815Z,1.10
2019-05-30T12:16:04.803Z,1.00
2019-05-30T12:18:34.754Z,1.10
2019-05-30T12:21:04.808Z,1.07
2019-05-30T12:23:34.739Z,1.10
2019-05-30T12:26:04.731Z,1.00
2019-05-30T12:28:34.673Z,1.00
2019-05-30T12:31:06.592Z,1.00
2019-05-30T12:36:05.785Z,1.00
2019-05-30T12:38:35.644Z,0.90
2019-05-30T12:41:05.646Z,1.00
2019-05-30T12:43:35.490Z,1.20
2019-05-30T12:46:05.560Z,1.00
2019-05-30T12:48:35.404Z,0.93
2019-05-30T12:51:05.597Z,1.00
2019-05-30T12:53:35.649Z,1.07
2019-05-30T12:56:06.872Z,1.10
2019-05-30T12:58:36.995Z,1.05
2019-05-30T13:01:07.092Z,1.10
2019-05-30T13:03:37.100Z,0.80
2019-05-30T13:06:07.522Z,0.70
2019-05-30T13:08:37.555Z,1.00
2019-05-30T13:11:07.419Z,1.00
2019-05-30T13:13:38.439Z,1.03
2019-05-30T13:16:09.050Z,0.90
2019-05-30T13:18:39.164Z,1.00
2019-05-30T13:21:09.360Z,0.90
2019-05-30T13:23:39.452Z,0.90
2019-05-30T13:26:09.459Z,0.90
2019-05-30T13:28:39.447Z,0.75
2019-05-30T13:31:09.541Z,0.80
2019-05-30T13:33:39.390Z,1.00
2019-05-30T13:36:09.330Z,0.95
2019-05-30T13:38:39.172Z,0.98
2019-05-30T13:41:09.040Z,1.00
2019-05-30T13:43:39.195Z,0.90
2019-05-30T13:46:09.231Z,0.70
2019-05-30T13:48:39.200Z,1.02
2019-05-30T13:51:09.199Z,1.00
2019-05-30T13:53:39.156Z,0.95
2019-05-30T13:56:09.834Z,0.80
2019-05-30T13:58:39.784Z,0.80
2019-05-30T14:01:13.762Z,1.00
2019-05-30T14:03:41.255Z,0.90
2019-05-30T14:06:11.363Z,1.00
2019-05-30T14:08:42.193Z,1.00
2019-05-30T14:13:42.144Z,0.90
2019-05-30T14:16:12.013Z,0.93
2019-05-30T14:18:42.009Z,0.98
2019-05-30T14:21:12.081Z,0.90
2019-05-30T14:23:41.928Z,0.80
2019-05-30T14:26:11.793Z,0.78
2019-05-30T14:28:41.631Z,0.88
2019-05-30T14:31:13.134Z,0.90
2019-05-30T14:33:43.252Z,0.80
2019-05-30T14:36:14.760Z,0.80
2019-05-30T14:38:57.056Z,1.00
2019-05-30T14:41:16.221Z,0.90
2019-05-30T14:43:46.064Z,0.90
2019-05-30T14:46:16.658Z,1.00
2019-05-30T14:48:46.829Z,0.90
2019-05-30T14:51:17.131Z,0.75
2019-05-30T14:53:48.185Z,1.12
2019-05-30T14:56:18.051Z,0.90
2019-05-30T14:58:47.966Z,0.90
2019-05-30T15:01:17.835Z,0.90
2019-05-30T15:03:47.751Z,0.80
2019-05-30T15:06:18.041Z,0.90
2019-05-30T15:08:47.946Z,0.82
2019-05-30T15:11:17.882Z,1.10
2019-05-30T15:13:47.800Z,0.93
2019-05-30T15:16:17.845Z,1.07
2019-05-30T15:18:47.695Z,1.07
2019-05-30T15:21:17.556Z,1.20
2019-05-30T15:23:47.415Z,1.17
2019-05-30T15:26:17.283Z,1.10
2019-05-30T15:28:47.191Z,1.17
2019-05-30T15:31:17.035Z,1.27
2019-05-30T15:33:46.976Z,1.20
2019-05-30T15:36:17.193Z,1.27
2019-05-30T15:38:47.147Z,1.30
2019-05-30T15:41:17.368Z,1.20
2019-05-30T15:43:47.405Z,1.42
2019-05-30T15:46:18.078Z,1.87
2019-05-30T15:48:48.070Z,1.35
2019-05-30T15:51:18.850Z,1.07
2019-05-30T15:56:19.466Z,1.30
2019-05-30T15:58:49.604Z,1.30
2019-05-30T16:01:20.153Z,1.50
2019-05-30T16:03:50.281Z,1.30
2019-05-30T16:06:21.266Z,1.50
2019-05-30T16:08:51.233Z,1.60
2019-05-30T16:11:21.352Z,1.30
2019-05-30T16:13:51.377Z,1.30
2019-05-30T16:16:37.949Z,1.60
2019-05-30T16:18:54.081Z,1.70
2019-05-30T16:21:23.928Z,1.80
2019-05-30T16:23:53.859Z,2.37
2019-05-30T16:26:23.700Z,2.20
2019-05-30T16:28:53.699Z,2.08
2019-05-30T16:31:23.563Z,2.22
2019-05-30T16:33:53.482Z,2.60
2019-05-30T16:36:23.349Z,2.25
2019-05-30T16:38:53.265Z,2.60
2019-05-30T16:41:23.129Z,2.50
2019-05-30T16:43:53.040Z,2.90
2019-05-30T16:46:22.905Z,2.50
2019-05-30T16:48:53.896Z,2.60
2019-05-30T16:51:23.768Z,2.70
2019-05-30T16:53:53.685Z,2.50
2019-05-30T16:56:23.680Z,2.92
2019-05-30T16:58:53.645Z,2.67
2019-05-30T17:01:24.243Z,2.37
2019-05-30T17:03:54.276Z,2.67
2019-05-30T17:06:27.153Z,2.47
2019-05-30T17:08:57.016Z,2.60
2019-05-30T17:11:26.926Z,2.45
2019-05-30T17:13:56.792Z,2.40
2019-05-30T17:16:26.707Z,2.30
2019-05-30T17:18:56.577Z,2.50
2019-05-30T17:21:26.821Z,2.40
2019-05-30T17:23:56.828Z,2.15
2019-05-30T17:26:27.442Z,2.45
2019-05-30T17:28:58.579Z,2.22
2019-05-30T17:31:28.733Z,2.47
2019-05-30T17:33:58.742Z,2.00
2019-05-30T17:36:28.754Z,2.20
2019-05-30T17:38:58.671Z,2.30
2019-05-30T17:41:29.033Z,2.65
2019-05-30T17:43:58.945Z,1.92
2019-05-30T17:46:30.112Z,2.20
2019-05-30T17:49:01.307Z,2.40
2019-05-30T17:51:31.177Z,1.92
2019-05-30T17:54:01.092Z,2.10
2019-05-30T17:56:31.051Z,2.10
2019-05-30T17:59:00.884Z,2.20
2019-05-30T18:01:30.820Z,2.00
2019-05-30T18:04:00.665Z,2.10
2019-05-30T18:06:30.825Z,2.30
2019-05-30T18:09:00.777Z,1.90
2019-05-30T18:11:32.412Z,2.12
2019-05-30T18:14:02.431Z,2.10
2019-05-30T18:16:32.368Z,1.98
2019-05-30T18:19:02.284Z,1.90
2019-05-30T18:21:32.225Z,1.85
2019-05-30T18:24:02.162Z,1.72
2019-05-30T18:26:32.061Z,2.17
2019-05-30T18:29:01.907Z,2.00
2019-05-30T18:31:32.336Z,2.08
2019-05-30T18:34:03.456Z,1.82
2019-05-30T18:36:33.463Z,2.08
2019-05-30T18:39:03.487Z,2.15
2019-05-30T18:41:33.792Z,1.90
2019-05-30T18:44:04.371Z,1.75
2019-05-30T18:46:34.234Z,2.00
2019-05-30T18:49:04.164Z,1.90
2019-05-30T18:51:34.032Z,1.80
2019-05-30T18:54:04.127Z,2.10
2019-05-30T18:56:34.074Z,1.75
2019-05-30T18:59:04.064Z,1.72
2019-05-30T19:01:34.024Z,2.12
2019-05-30T19:04:04.440Z,1.75
2019-05-30T19:06:35.992Z,1.82
2019-05-30T19:11:36.985Z,1.82
2019-05-30T19:14:07.526Z,1.72
2019-05-30T19:16:37.979Z,1.60
2019-05-30T19:19:08.019Z,1.90
2019-05-30T19:21:38.085Z,1.90
2019-05-30T19:24:08.181Z,1.77
2019-05-30T19:26:38.204Z,1.75
2019-05-30T19:29:08.179Z,1.90
2019-05-30T19:31:38.224Z,1.67
2019-05-30T19:34:08.405Z,1.77
2019-05-30T19:36:38.552Z,1.82
2019-05-30T19:39:08.816Z,1.62
2019-05-30T19:41:53.710Z,1.80
2019-05-30T19:46:40.691Z,1.72
2019-05-30T19:49:11.814Z,1.60
2019-05-30T19:51:43.671Z,1.60
2019-05-30T19:54:15.184Z,2.00
2019-05-30T19:56:45.729Z,1.82
2019-05-30T19:59:15.727Z,1.87
2019-05-30T20:01:46.142Z,1.60
2019-05-30T20:04:16.602Z,1.70
2019-05-30T20:06:46.923Z,1.70
2019-05-30T20:09:17.343Z,2.02
2019-05-30T20:12:02.053Z,1.72
2019-05-30T20:14:19.548Z,1.67
2019-05-30T20:16:49.553Z,1.47
2019-05-30T20:19:19.773Z,1.70
2019-05-30T20:21:49.811Z,1.60
2019-05-30T20:24:19.788Z,1.57
2019-05-30T20:26:49.763Z,1.62
2019-05-30T20:29:19.693Z,1.82
2019-05-30T20:31:49.715Z,1.75
2019-05-30T20:34:19.637Z,1.80
2019-05-30T20:36:49.577Z,1.72
2019-05-30T20:39:19.500Z,1.55
2019-05-30T20:41:49.827Z,1.87
2019-05-30T20:44:19.848Z,1.70
2019-05-30T20:46:49.770Z,1.80
2019-05-30T20:49:19.700Z,1.60
2019-05-30T20:51:49.569Z,1.80
2019-05-30T20:54:19.500Z,1.67
2019-05-30T20:56:51.671Z,1.70
2019-05-30T20:59:21.783Z,1.60
2019-05-30T21:01:51.654Z,1.90
2019-05-30T21:04:21.578Z,1.80
2019-05-30T21:06:52.587Z,1.80
2019-05-30T21:09:29.035Z,2.10
2019-05-30T21:11:56.512Z,1.50
2019-05-30T21:14:29.569Z,1.60
2019-05-30T21:17:01.753Z,1.70
2019-05-30T21:19:31.962Z,1.50
2019-05-30T21:22:01.899Z,1.80
2019-05-30T21:24:31.816Z,1.70
2019-05-30T21:27:01.675Z,1.80
2019-05-30T21:29:31.635Z,1.72
2019-05-30T21:32:01.716Z,1.90
2019-05-30T21:34:31.707Z,1.90
2019-05-30T21:37:01.595Z,1.47
2019-05-30T21:39:31.491Z,1.70
2019-05-30T21:42:01.334Z,1.70
2019-05-30T21:44:31.278Z,1.77
2019-05-30T21:47:01.214Z,1.45
2019-05-30T21:49:31.640Z,1.50
2019-05-30T21:52:01.552Z,1.70
2019-05-30T21:54:31.415Z,1.55
2019-05-30T21:57:01.256Z,1.60
2019-05-30T21:59:32.190Z,2.27
2019-05-30T22:02:02.546Z,1.72
2019-05-30T22:04:32.476Z,1.50
2019-05-30T22:07:02.388Z,1.87
2019-05-30T22:09:32.296Z,1.50
2019-05-30T22:12:02.212Z,1.67
2019-05-30T22:14:32.184Z,1.40
2019-05-30T22:17:02.024Z,1.50
2019-05-30T22:19:31.884Z,1.47
2019-05-30T22:22:01.719Z,1.57
2019-05-30T22:24:31.652Z,1.67
2019-05-30T22:27:01.517Z,1.50
2019-05-30T22:29:31.388Z,1.60
2019-05-30T22:32:01.267Z,1.70
2019-05-30T22:34:31.164Z,1.75
2019-05-30T22:37:01.103Z,1.40
2019-05-30T22:39:31.024Z,1.85
2019-05-30T22:42:00.889Z,1.70
2019-05-30T22:44:30.727Z,1.60
2019-05-30T22:47:00.596Z,1.47
2019-05-30T22:49:30.461Z,1.77
2019-05-30T22:52:00.377Z,1.40
2019-05-30T22:54:30.237Z,1.55
2019-05-30T22:57:01.422Z,1.50
2019-05-30T22:59:31.424Z,1.40
2019-05-30T23:02:01.279Z,1.40
2019-05-30T23:04:32.286Z,1.30
2019-05-30T23:07:02.209Z,1.30
2019-05-30T23:09:32.171Z,1.40
2019-05-30T23:12:02.082Z,1.50
2019-05-30T23:14:32.020Z,1.45
2019-05-30T23:17:01.864Z,1.30
2019-05-30T23:19:31.749Z,1.50
2019-05-30T23:22:01.592Z,1.40
2019-05-30T23:24:32.523Z,1.60
2019-05-30T23:27:02.367Z,1.40
2019-05-30T23:29:32.232Z,1.37
2019-05-30T23:32:02.115Z,1.40
2019-05-30T23:34:33.048Z,1.23
2019-05-30T23:37:02.888Z,1.30
2019-05-30T23:39:32.788Z,1.37
2019-05-30T23:42:02.709Z,1.37
2019-05-30T23:44:32.705Z,1.40
2019-05-30T23:47:02.647Z,1.30
2019-05-30T23:49:32.572Z,1.72
2019-05-30T23:52:02.504Z,1.40
2019-05-30T23:54:32.343Z,1.47
2019-05-30T23:57:02.215Z,1.30
2019-05-30T23:59:32.127Z,1.42
